RJTC(METAR)
05/30 16:00
METAR RJTC 300700Z 18014KT 9999 FEW020 SCT100 BKN200 25/12 Q1019 RMK
1CU020 3AC100 6CI200 A3010=
戻る
トップページへ戻る
IMOC Co,.Ltd.